Criglersville, Virginia
Current Conditions -  °F | °C
As of 10:35 PM on Saturday 22 Nov 2014 (Local Time) from KOMH Reporting Station
Scattered Clouds Scattered Clouds  
Wind Chill: 33°   Ceiling: Unl
Heat Index: 39°   Visibility: 10mi
Dew Point: 19°   Wind: 9mph
Humidity: 45%   Direction: 170°S
Pressure: 30.27"   Gusts: NA
Location:  38.4007°N, 78.3336°W
Report Text: KOMH 230335Z AUTO 17008KT 10SM SCT110 04/M07 A3027 RMK AO2
Loading
Personal Weather Stations






























Interactive Weather Map New forecast layout! Learn more

10-Day Weather Forecast

Advertisements
Track Severe Weather on mobile